Latest Weather Observations for Butlers Gorge

IDT60801

Issued at 9:35 pm EST Friday 22 August 2014 (issued every 30 minutes, with the page automatically refreshed every 10 minutes)

About weather observations | Map of weather stations | Latest weather observations for TAS | Other Formats
Station Details ID: 096003 Name: BUTLERS GORGE Lat: -42.28 Lon: 146.28 Height: 667.0 m
Data from the previous 72 hours. | See also: Recent months at Butlers Gorge
Date/Time
EST
Temp
°C
App
Temp
°C
Dew
Point
Rel
Hum
%
Delta-T
°C
Wind Press
QNH
hPa
Press
MSL
hPa
Rain
since 9 am
mm
Dir
 
Spd
km/h
Gust
km/h
Spd
kts
Gust
kts
22/09:30pm -0.1 -2.2 -0.8 95 0.3 NNE 0 0 0 0 - - 0.0
22/09:00pm 1.0 -0.9 0.4 96 0.2 SE 0 0 0 0 - - 0.0
22/08:30pm 1.5 -0.4 0.8 95 0.3 CALM 0 0 0 0 - - 0.0
22/08:00pm 3.0 1.4 2.3 95 0.3 CALM 0 0 0 0 - - 0.0
22/07:30pm 3.3 1.6 2.0 91 0.5 CALM 0 0 0 0 - - 0.0
22/07:00pm 4.4 2.9 2.8 89 0.7 CALM 0 0 0 0 - - 0.0
22/06:30pm 6.1 3.6 3.9 86 1.0 W 6 7 3 4 - - 0.0
22/06:00pm 8.0 5.4 4.0 76 1.8 NNW 7 13 4 7 - - 0.0
22/05:30pm 8.9 6.4 3.7 70 2.3 NW 6 11 3 6 - - 0.0
22/05:00pm 9.6 6.9 3.6 66 2.7 WNW 7 13 4 7 - - 0.0
22/04:30pm 10.6 7.9 3.6 62 3.2 NNW 7 11 4 6 - - 0.0
22/04:00pm 10.4 7.3 3.4 62 3.2 N 9 15 5 8 - - 0.0
22/03:30pm 10.7 8.3 4.2 64 3.0 WNW 6 9 3 5 - - 0.0
22/03:00pm 10.5 7.4 3.8 63 3.1 NNE 9 15 5 8 - - 0.0
22/02:30pm 10.6 7.9 3.9 63 3.1 WNW 7 15 4 8 - - 0.0
22/02:00pm 10.4 7.3 3.4 62 3.2 WNW 9 15 5 8 - - 0.0
22/01:30pm 10.2 7.0 3.3 62 3.1 NNW 9 17 5 9 - - 0.0
22/01:00pm 9.8 6.8 4.0 67 2.7 N 9 17 5 9 - - 0.0
22/12:30pm 9.9 6.8 3.6 65 2.9 NW 9 19 5 10 - - 0.0
22/12:00pm 10.5 7.0 3.3 61 3.3 NNW 11 20 6 11 - - 0.0
22/11:30am 11.3 7.5 3.8 60 3.5 WNW 13 24 7 13 - - 0.0
22/11:00am 9.8 6.6 3.1 63 3.0 W 9 19 5 10 - - 0.0
22/10:30am 9.9 5.9 3.0 62 3.1 NNW 13 26 7 14 - - 0.0
22/10:00am 9.0 5.9 3.6 69 2.4 NW 9 19 5 10 - - 0.0
22/09:30am 7.8 5.6 5.3 84 1.2 E 6 7 3 4 - - 0.0
22/09:24am 6.6 5.1 5.1 90 0.7 ENE 2 7 1 4 - - 0.0
22/09:00am 1.6 -0.6 1.0 96 0.2 NE 2 9 1 5 - - 0.0
22/08:30am -0.1 -2.2 -0.5 97 0.1 CALM 0 0 0 0 - - 0.0
22/08:00am -0.9 -3.1 -1.5 96 0.2 CALM 0 0 0 0 - - 0.0
22/07:30am -0.9 -3.1 -1.3 97 0.1 CALM 0 2 0 1 - - 0.0
22/07:00am -1.5 -3.8 -2.1 96 0.1 CALM 0 0 0 0 - - 0.0
22/06:30am -1.8 -4.9 -2.4 96 0.1 WSW 4 7 2 4 - - 0.0
22/06:00am -1.5 -3.8 -2.1 96 0.1 CALM 0 0 0 0 - - 0.0
22/05:30am -1.4 -3.7 -2.0 96 0.1 CALM 0 0 0 0 - - 0.0
22/05:00am -1.2 -3.4 -1.8 96 0.2 CALM 0 0 0 0 - - 0.0
22/04:30am -0.8 -3.0 -1.2 97 0.1 CALM 0 0 0 0 - - 0.0
22/04:00am -1.4 -3.6 -1.8 97 0.1 CALM 0 0 0 0 - - 0.0
22/03:30am -1.5 -3.7 -1.9 97 0.1 CALM 0 0 0 0 - - 0.0
22/03:00am -1.4 -3.7 -2.0 96 0.1 CALM 0 0 0 0 - - 0.0
22/02:30am -1.0 -4.3 -1.4 97 0.1 WSW 6 7 3 4 - - 0.0
22/02:00am -2.0 -4.7 -2.6 96 0.1 WSW 2 7 1 4 - - 0.0
22/01:30am -1.8 -4.5 -2.4 96 0.1 WSW 2 7 1 4 - - 0.0
22/01:00am -1.4 -4.0 -2.0 96 0.1 SW 2 6 1 3 - - 0.0
22/12:30am -2.4 -4.8 -3.1 95 0.1 SSW 0 0 0 0 - - 0.0
22/12:00am -1.5 -4.2 -2.1 96 0.1 SW 2 6 1 3 - - 0.0
 
Date/Time
EST
Temp
°C
App
Temp
°C
Dew
Point
Rel
Hum
%
Delta-T
°C
Wind Press
QNH
hPa
Press
MSL
hPa
Rain
since 9 am
mm
Dir
 
Spd
km/h
Gust
km/h
Spd
kts
Gust
kts
21/11:30pm -1.2 -4.2 -1.8 96 0.2 ENE 4 9 2 5 - - 0.0
21/11:00pm -0.4 -2.5 -1.0 96 0.2 CALM 0 0 0 0 - - 0.0
21/10:30pm -0.4 -2.5 -1.0 96 0.2 CALM 0 0 0 0 - - 0.0
21/10:00pm -0.8 -3.0 -1.4 96 0.2 CALM 0 0 0 0 - - 0.0
21/09:30pm -0.9 -3.1 -1.5 96 0.2 CALM 0 0 0 0 - - 0.0
21/09:00pm -0.5 -2.6 -1.1 96 0.2 CALM 0 0 0 0 - - 0.0
21/08:30pm -0.5 -2.7 -1.2 95 0.2 CALM 0 0 0 0 - - 0.0
21/08:00pm 0.1 -2.0 -0.6 95 0.3 CALM 0 0 0 0 - - 0.0
21/07:30pm 0.3 -1.8 -0.7 93 0.4 CALM 0 0 0 0 - - 0.0
21/07:00pm 1.2 -0.8 0.0 92 0.5 CALM 0 0 0 0 - - 0.0
21/06:30pm 2.4 0.5 0.8 89 0.6 CALM 0 0 0 0 - - 0.0
21/06:00pm 3.7 2.0 1.6 86 0.9 CALM 0 0 0 0 - - 0.0
21/05:30pm 5.9 4.3 2.2 77 1.6 CALM 0 7 0 4 - - 0.0
21/05:00pm 8.6 5.5 1.3 60 3.1 NNW 7 15 4 8 - - 0.0
21/04:30pm 10.5 7.4 1.6 54 3.9 N 7 15 4 8 - - 0.0
21/04:00pm 11.1 7.6 1.4 51 4.2 NNW 9 15 5 8 - - 0.0
21/03:30pm 11.3 7.4 1.0 49 4.5 N 11 17 6 9 - - 0.0
21/03:00pm 11.4 7.2 1.4 50 4.4 N 13 20 7 11 - - 0.0
21/02:30pm 11.8 8.0 2.0 51 4.4 N 11 17 6 9 - - 0.0
21/02:00pm 11.9 9.1 2.9 54 4.1 WNW 7 13 4 7 - - 0.0
21/01:30pm 11.1 8.1 2.2 54 4.0 WNW 7 11 4 6 - - 0.0
21/01:00pm 10.6 7.6 2.2 56 3.7 W 7 13 4 7 - - 0.0
21/12:30pm 10.0 7.0 1.9 57 3.5 N 7 11 4 6 - - 0.0
21/12:00pm 9.9 7.0 2.7 61 3.2 WNW 7 11 4 6 - - 0.0
21/11:30am 8.9 5.8 1.3 59 3.2 NW 7 11 4 6 - - 0.0
21/11:00am 7.3 4.8 1.6 67 2.4 SW 4 7 2 4 - - 0.0
21/10:30am 5.7 3.0 2.5 80 1.4 WSW 6 7 3 4 - - 0.0
21/10:00am 3.8 1.3 1.8 87 0.8 WSW 4 7 2 4 - - 0.0
21/09:30am 1.8 -1.4 0.9 94 0.4 WSW 7 9 4 5 - - 0.0
21/09:00am 1.0 -0.9 0.6 97 0.2 CALM 0 0 0 0 - - 0.2
21/08:30am -0.5 -2.6 -0.9 97 0.1 CALM 0 0 0 0 - - 0.0
21/08:00am -1.6 -3.9 -2.2 96 0.1 CALM 0 0 0 0 - - 0.0
21/07:30am -2.0 -4.3 -2.4 97 0.0 CALM 0 0 0 0 - - 0.0
21/07:00am -2.2 -4.5 -2.6 97 0.0 CALM 0 0 0 0 - - 0.0
21/06:30am -2.2 -4.5 -2.7 96 0.1 CALM 0 0 0 0 - - 0.0
21/06:00am -1.9 -4.2 -2.3 97 0.1 CALM 0 0 0 0 - - 0.0
21/05:30am -1.6 -3.9 -2.0 97 0.1 CALM 0 0 0 0 - - 0.0
21/05:00am -1.7 -4.0 -2.1 97 0.1 CALM 0 0 0 0 - - 0.0
21/04:30am -1.6 -3.9 -2.0 97 0.1 CALM 0 0 0 0 - - 0.0
21/04:00am -1.7 -4.0 -2.1 97 0.1 CALM 0 0 0 0 - - 0.0
21/03:30am -2.0 -4.3 -2.6 96 0.1 CALM 0 0 0 0 - - 0.0
21/03:00am -1.7 -4.0 -2.1 97 0.1 CALM 0 0 0 0 - - 0.0
21/02:30am -1.9 -4.2 -2.3 97 0.1 CALM 0 0 0 0 - - 0.0
21/02:00am -2.2 -4.5 -2.7 96 0.1 CALM 0 0 0 0 - - 0.0
21/01:30am -2.5 -4.9 -3.0 96 0.1 CALM 0 0 0 0 - - 0.0
21/01:00am -2.1 -4.4 -2.6 96 0.1 CALM 0 0 0 0 - - 0.0
21/12:30am -2.2 -4.5 -2.7 96 0.1 CALM 0 0 0 0 - - 0.0
21/12:00am -2.6 -5.0 -3.1 96 0.1 CALM 0 0 0 0 - - 0.0
 
Date/Time
EST
Temp
°C
App
Temp
°C
Dew
Point
Rel
Hum
%
Delta-T
°C
Wind Press
QNH
hPa
Press
MSL
hPa
Rain
since 9 am
mm
Dir
 
Spd
km/h
Gust
km/h
Spd
kts
Gust
kts
20/11:30pm -2.9 -5.4 -3.6 95 0.1 CALM 0 0 0 0 - - 0.0
20/11:00pm -2.8 -5.2 -3.5 95 0.1 CALM 0 0 0 0 - - 0.0
20/10:30pm -2.6 -5.0 -3.3 95 0.1 CALM 0 0 0 0 - - 0.0
20/10:00pm -2.4 -4.8 -3.1 95 0.1 CALM 0 0 0 0 - - 0.0
20/09:30pm -2.1 -4.5 -2.8 95 0.1 CALM 0 0 0 0 - - 0.0
20/09:00pm -1.4 -3.7 -2.0 96 0.1 CALM 0 0 0 0 - - 0.0
20/08:30pm -1.2 -3.4 -1.9 95 0.2 CALM 0 0 0 0 - - 0.0
20/08:00pm -0.6 -2.8 -1.3 95 0.2 CALM 0 0 0 0 - - 0.0
20/07:30pm -0.2 -2.3 -1.0 94 0.3 CALM 0 0 0 0 - - 0.0
20/07:00pm 1.1 -0.8 0.4 95 0.3 CALM 0 0 0 0 - - 0.0
20/06:30pm 1.6 -0.3 0.6 93 0.4 CALM 0 0 0 0 - - 0.0
20/06:00pm 2.4 0.6 0.9 90 0.6 CALM 0 0 0 0 - - 0.0
20/05:30pm 4.1 2.4 2.0 86 0.9 CALM 0 0 0 0 - - 0.0
20/05:00pm 6.1 4.1 2.4 77 1.6 WSW 2 6 1 3 - - 0.0
20/04:30pm 9.3 6.6 2.4 62 3.0 S 6 9 3 5 - - 0.0
20/04:00pm 9.5 6.7 1.9 59 3.3 SE 6 13 3 7 - - 0.0
20/03:30pm 9.7 6.3 1.8 58 3.4 SSW 9 15 5 8 - - 0.0
20/03:00pm 9.8 6.8 2.2 59 3.3 SSW 7 17 4 9 - - 0.0
20/02:30pm 9.8 6.3 1.2 55 3.7 W 9 13 5 7 - - 0.0
20/02:00pm 9.8 6.5 2.6 61 3.2 WSW 9 15 5 8 - - 0.0
20/01:30pm 9.6 6.3 2.7 62 3.1 NNW 9 13 5 7 - - 0.0
20/01:00pm 9.6 6.8 3.4 65 2.8 W 7 13 4 7 - - 0.0
20/12:30pm 7.6 4.8 1.9 67 2.4 SE 6 9 3 5 - - 0.0
20/12:00pm 7.8 5.0 2.9 71 2.2 S 7 13 4 7 - - 0.0
20/11:30am 7.4 4.5 2.5 71 2.1 W 7 11 4 6 - - 0.0
20/11:00am 7.2 4.6 3.1 75 1.8 WSW 6 11 3 6 - - 0.0
20/10:30am 6.1 3.2 2.4 77 1.6 NW 7 13 4 7 - - 0.0
20/10:00am 4.5 1.5 2.0 84 1.0 WNW 7 11 4 6 - - 0.0
20/09:30am 3.6 0.8 2.0 89 0.7 NNW 6 9 3 5 - - 0.0
20/09:00am 2.8 1.2 2.4 97 0.2 CALM 0 0 0 0 - - 0.0
20/08:30am 0.4 -1.6 0.0 97 0.2 CALM 0 0 0 0 - - 0.0
20/08:00am -0.6 -2.7 -1.0 97 0.1 CALM 0 0 0 0 - - 0.0
20/07:30am -1.5 -3.8 -2.1 96 0.1 CALM 0 0 0 0 - - 0.0
20/07:00am -1.9 -4.2 -2.5 96 0.1 CALM 0 0 0 0 - - 0.0
20/06:30am -1.7 -4.0 -2.3 96 0.1 CALM 0 0 0 0 - - 0.0
20/06:00am -1.7 -4.0 -2.3 96 0.1 CALM 0 0 0 0 - - 0.0
20/05:30am -1.9 -4.2 -2.5 96 0.1 CALM 0 0 0 0 - - 0.0
20/05:00am -1.7 -4.0 -2.3 96 0.1 CALM 0 0 0 0 - - 0.0
20/04:30am -1.3 -3.5 -1.9 96 0.2 CALM 0 0 0 0 - - 0.0
20/04:00am -1.1 -3.3 -1.7 96 0.2 CALM 0 0 0 0 - - 0.0
20/03:30am -0.8 -3.0 -1.4 96 0.2 CALM 0 0 0 0 - - 0.0
20/03:00am -0.7 -2.9 -1.3 96 0.2 CALM 0 0 0 0 - - 0.0
20/02:30am -0.4 -2.5 -1.1 95 0.2 CALM 0 0 0 0 - - 0.0
20/02:00am 0.5 -1.5 -0.1 96 0.2 CALM 0 0 0 0 - - 0.0
20/01:30am 0.9 -1.0 0.3 96 0.2 CALM 0 0 0 0 - - 0.0
20/01:00am 0.7 -1.3 0.1 96 0.2 CALM 0 0 0 0 - - 0.0
20/12:30am 1.0 -0.9 0.4 96 0.2 CALM 0 0 0 0 - - 0.0
20/12:00am 1.1 -0.8 0.4 95 0.3 CALM 0 0 0 0 - - 0.0
 
Date/Time
EST
Temp
°C
App
Temp
°C
Dew
Point
Rel
Hum
%
Delta-T
°C
Wind Press
QNH
hPa
Press
MSL
hPa
Rain
since 9 am
mm
Dir
 
Spd
km/h
Gust
km/h
Spd
kts
Gust
kts
19/11:30pm 2.0 -0.5 1.3 95 0.3 WNW 4 9 2 5 - - 0.0
19/11:00pm 1.6 -0.2 0.9 95 0.3 CALM 0 0 0 0 - - 0.0
19/10:30pm 1.6 -0.2 0.9 95 0.3 CALM 0 0 0 0 - - 0.0
19/10:00pm 1.5 -0.4 0.6 94 0.3 CALM 0 0 0 0 - - 0.0

Other Formats:

Comma delimited format used in spreadsheet applications
http://www.bom.gov.au/fwo/IDT60801/IDT60801.94959.axf

JavaScript Object Notation format (JSON) in row-major order
http://www.bom.gov.au/fwo/IDT60801/IDT60801.94959.json